createdAt,value
2023-01-01T00:00:23.643Z,92.35
2023-01-01T00:02:57.759Z,92.21
2023-01-01T00:05:12.599Z,92.18
2023-01-01T00:07:26.000Z,92.25
2023-01-01T00:09:55.689Z,92.46
2023-01-01T00:12:10.369Z,92.83
2023-01-01T00:14:23.681Z,92.74
2023-01-01T00:16:37.037Z,92.62
2023-01-01T00:18:50.268Z,92.72
2023-01-01T00:21:13.421Z,92.69
2023-01-01T00:23:26.604Z,92.70
2023-01-01T00:25:39.805Z,92.89
2023-01-01T00:27:53.083Z,92.18
2023-01-01T00:30:06.292Z,91.71
2023-01-01T00:32:22.820Z,91.71
2023-01-01T00:34:36.475Z,91.62
2023-01-01T00:36:49.606Z,91.53
2023-01-01T00:39:02.782Z,91.82
2023-01-01T00:41:16.454Z,92.01
2023-01-01T00:43:30.314Z,91.93
2023-01-01T00:45:43.594Z,92.12
2023-01-01T00:47:57.551Z,92.19
2023-01-01T00:50:11.771Z,92.06
2023-01-01T00:52:25.068Z,92.15
2023-01-01T00:54:38.283Z,91.86
2023-01-01T00:56:51.593Z,91.89
2023-01-01T00:59:04.889Z,91.79
2023-01-01T01:01:18.157Z,91.72
2023-01-01T01:03:31.711Z,91.69
2023-01-01T01:05:45.169Z,91.84
2023-01-01T01:07:58.431Z,92.12
2023-01-01T01:10:13.461Z,92.05
2023-01-01T01:12:26.771Z,92.17
2023-01-01T01:14:40.318Z,92.44
2023-01-01T01:16:53.649Z,92.54
2023-01-01T01:19:08.613Z,92.50
2023-01-01T01:21:25.425Z,92.13
2023-01-01T01:23:39.729Z,92.03
2023-01-01T01:25:53.539Z,92.03
2023-01-01T01:28:06.959Z,92.04
2023-01-01T01:30:20.851Z,92.09
2023-01-01T01:32:34.254Z,92.31
2023-01-01T01:34:47.612Z,92.52
2023-01-01T01:37:00.943Z,92.50
2023-01-01T01:39:16.900Z,92.45
2023-01-01T01:41:31.124Z,92.43
2023-01-01T01:44:05.743Z,92.37
2023-01-01T01:46:21.731Z,92.71
2023-01-01T01:48:37.252Z,92.65
2023-01-01T01:50:52.069Z,92.86
2023-01-01T01:53:16.939Z,92.82
2023-01-01T01:55:34.491Z,92.99
2023-01-01T01:57:48.471Z,92.69
2023-01-01T02:00:10.393Z,92.88
2023-01-01T02:02:30.980Z,93.05
2023-01-01T02:04:45.607Z,92.85
2023-01-01T02:06:59.275Z,92.63
2023-01-01T02:09:13.944Z,92.92
2023-01-01T02:11:27.323Z,92.88
2023-01-01T02:13:40.752Z,92.89
2023-01-01T02:15:59.280Z,93.01
2023-01-01T02:18:14.500Z,93.05
2023-01-01T02:20:41.085Z,93.20
2023-01-01T02:23:28.303Z,93.50
2023-01-01T02:25:52.760Z,93.60
2023-01-01T02:28:19.049Z,93.76
2023-01-01T02:30:33.558Z,93.93
2023-01-01T02:32:50.556Z,94.21
2023-01-01T02:35:25.947Z,94.26
2023-01-01T02:37:39.987Z,94.09
2023-01-01T02:39:58.471Z,93.98
2023-01-01T02:42:13.180Z,93.94
2023-01-01T02:44:29.774Z,93.99
2023-01-01T02:46:43.337Z,94.18
2023-01-01T02:48:58.285Z,94.14
2023-01-01T02:51:25.712Z,94.17
2023-01-01T02:53:41.178Z,94.24
2023-01-01T02:56:06.692Z,94.09
2023-01-01T02:58:43.557Z,94.20
2023-01-01T03:01:00.439Z,94.17
2023-01-01T03:03:25.764Z,94.11
2023-01-01T03:06:04.613Z,94.13
2023-01-01T03:08:23.109Z,94.24
2023-01-01T03:10:43.891Z,94.37
2023-01-01T03:13:03.530Z,94.57
2023-01-01T03:15:28.885Z,94.59
2023-01-01T03:17:45.397Z,94.75
2023-01-01T03:20:02.446Z,94.68
2023-01-01T03:22:17.537Z,94.63
2023-01-01T03:24:36.037Z,94.74
2023-01-01T03:26:52.503Z,94.72
2023-01-01T03:29:06.941Z,94.88
2023-01-01T03:31:25.237Z,94.89
2023-01-01T03:33:42.404Z,94.51
2023-01-01T03:35:58.998Z,94.36
2023-01-01T03:38:20.530Z,94.54
2023-01-01T03:40:35.982Z,94.71
2023-01-01T03:42:53.616Z,94.80
2023-01-01T03:45:10.678Z,95.18
2023-01-01T03:47:24.618Z,95.20
2023-01-01T03:49:38.869Z,95.26
2023-01-01T03:52:21.191Z,95.23
2023-01-01T03:54:45.670Z,95.44
2023-01-01T03:57:07.597Z,95.26
2023-01-01T03:59:24.998Z,95.37
2023-01-01T04:01:42.442Z,95.34
2023-01-01T04:03:56.651Z,95.27
2023-01-01T04:06:11.102Z,95.22
2023-01-01T04:08:24.550Z,95.19
2023-01-01T04:10:40.940Z,95.34
2023-01-01T04:12:57.472Z,95.29
2023-01-01T04:15:12.974Z,95.26
2023-01-01T04:17:26.194Z,95.16
2023-01-01T04:19:39.934Z,95.27
2023-01-01T04:21:53.259Z,95.36
2023-01-01T04:24:06.568Z,95.00
2023-01-01T04:26:21.500Z,95.05
2023-01-01T04:28:34.757Z,95.16
2023-01-01T04:30:48.058Z,95.05
2023-01-01T04:33:01.823Z,94.75
2023-01-01T04:35:17.059Z,94.51
2023-01-01T04:37:30.675Z,94.65
2023-01-01T04:39:44.381Z,94.79
2023-01-01T04:41:57.584Z,95.09
2023-01-01T04:44:11.055Z,95.21
2023-01-01T04:46:24.979Z,95.19
2023-01-01T04:48:39.027Z,95.40
2023-01-01T04:51:01.369Z,95.40
2023-01-01T04:53:14.879Z,95.51
2023-01-01T04:55:28.279Z,95.51
2023-01-01T04:57:41.681Z,95.47
2023-01-01T04:59:55.084Z,95.74
2023-01-01T05:02:08.612Z,96.10
2023-01-01T05:04:22.699Z,96.18
2023-01-01T05:06:36.219Z,95.75
2023-01-01T05:08:51.358Z,95.76
2023-01-01T05:11:09.719Z,95.75
2023-01-01T05:13:23.124Z,95.74
2023-01-01T05:15:38.439Z,96.08
2023-01-01T05:17:51.850Z,96.02
2023-01-01T05:20:05.417Z,96.03
2023-01-01T05:22:19.112Z,96.10
2023-01-01T05:24:32.670Z,96.42
2023-01-01T05:26:48.288Z,96.51
2023-01-01T05:29:02.973Z,96.31
2023-01-01T05:31:18.025Z,96.20
2023-01-01T05:33:31.910Z,96.28
2023-01-01T05:35:45.420Z,96.68
2023-01-01T05:37:59.359Z,96.66
2023-01-01T05:40:15.563Z,96.43
2023-01-01T05:42:28.977Z,96.35
2023-01-01T05:44:42.458Z,96.33
2023-01-01T05:46:55.939Z,96.19
2023-01-01T05:49:09.701Z,95.89
2023-01-01T05:51:25.592Z,95.81
2023-01-01T05:53:39.411Z,95.78
2023-01-01T05:55:58.584Z,95.85
2023-01-01T05:58:12.107Z,95.56
2023-01-01T06:00:26.166Z,95.58
2023-01-01T06:02:40.772Z,95.75
2023-01-01T06:04:55.871Z,95.94
2023-01-01T06:07:09.635Z,95.94
2023-01-01T06:09:22.938Z,95.67
2023-01-01T06:11:37.411Z,95.32
2023-01-01T06:13:54.474Z,94.92
2023-01-01T06:16:08.530Z,95.10
2023-01-01T06:18:22.382Z,95.27
2023-01-01T06:20:37.902Z,95.27
2023-01-01T06:22:52.063Z,95.50
2023-01-01T06:25:05.507Z,95.53
2023-01-01T06:27:21.215Z,95.59
2023-01-01T06:29:34.857Z,95.73
2023-01-01T06:31:48.318Z,95.80
2023-01-01T06:34:01.862Z,95.83
2023-01-01T06:36:17.298Z,95.97
2023-01-01T06:38:30.722Z,95.90
2023-01-01T06:40:44.101Z,96.01
2023-01-01T06:42:57.207Z,95.88
2023-01-01T06:45:11.934Z,95.78
2023-01-01T06:47:25.251Z,95.97
2023-01-01T06:49:40.345Z,96.13
2023-01-01T06:51:54.902Z,96.10
2023-01-01T06:54:10.290Z,96.12
2023-01-01T06:56:24.712Z,96.13
2023-01-01T06:58:39.543Z,96.08
2023-01-01T07:00:55.956Z,96.09
2023-01-01T07:03:09.372Z,95.99
2023-01-01T07:05:22.737Z,96.01
2023-01-01T07:07:36.270Z,95.87
2023-01-01T07:09:50.378Z,95.78
2023-01-01T07:12:03.832Z,95.86
2023-01-01T07:14:17.353Z,95.63
2023-01-01T07:16:35.345Z,95.29
2023-01-01T07:18:50.372Z,95.42
2023-01-01T07:21:05.209Z,95.41
2023-01-01T07:23:19.690Z,95.25
2023-01-01T07:25:33.415Z,95.07
2023-01-01T07:27:46.951Z,95.10
2023-01-01T07:30:03.202Z,95.15
2023-01-01T07:32:20.010Z,95.12
2023-01-01T07:34:38.060Z,95.31
2023-01-01T07:36:51.863Z,95.70
2023-01-01T07:39:05.389Z,95.54
2023-01-01T07:41:18.884Z,95.51
2023-01-01T07:43:32.416Z,95.69
2023-01-01T07:45:46.055Z,96.11
2023-01-01T07:48:01.227Z,96.05
2023-01-01T07:50:21.716Z,96.04
2023-01-01T07:52:34.967Z,96.12
2023-01-01T07:54:48.331Z,96.15
2023-01-01T07:57:01.828Z,96.10
2023-01-01T07:59:20.300Z,96.34
2023-01-01T08:01:34.128Z,96.47
2023-01-01T08:03:47.493Z,96.59
2023-01-01T08:06:01.125Z,96.73
2023-01-01T08:08:15.455Z,96.40
2023-01-01T08:10:29.011Z,96.43
2023-01-01T08:12:42.225Z,96.26
2023-01-01T08:14:55.482Z,96.27
2023-01-01T08:17:08.723Z,96.26
2023-01-01T08:19:21.969Z,96.00
2023-01-01T08:21:35.340Z,96.13
2023-01-01T08:23:48.631Z,96.20
2023-01-01T08:26:04.713Z,96.26
2023-01-01T08:28:18.834Z,96.28
2023-01-01T08:30:32.212Z,96.13
2023-01-01T08:32:45.455Z,96.22
2023-01-01T08:34:58.649Z,96.02
2023-01-01T08:37:14.989Z,96.02
2023-01-01T08:39:28.316Z,96.24
2023-01-01T08:41:41.626Z,96.30
2023-01-01T08:43:54.852Z,96.40
2023-01-01T08:46:08.305Z,96.41
2023-01-01T08:48:24.378Z,96.50
2023-01-01T08:50:42.050Z,96.48
2023-01-01T08:52:57.166Z,96.40
2023-01-01T08:55:11.102Z,96.25
2023-01-01T08:57:24.468Z,96.06
2023-01-01T08:59:37.650Z,95.94
2023-01-01T09:01:51.262Z,96.11
2023-01-01T09:04:04.509Z,96.11
2023-01-01T09:06:17.958Z,96.05
2023-01-01T09:08:31.818Z,95.90
2023-01-01T09:10:47.320Z,95.80
2023-01-01T09:13:00.695Z,95.76
2023-01-01T09:15:20.381Z,95.60
2023-01-01T09:17:33.689Z,95.56
2023-01-01T09:19:47.039Z,95.48
2023-01-01T09:22:00.488Z,95.44
2023-01-01T09:24:15.335Z,95.45
2023-01-01T09:26:28.797Z,95.40
2023-01-01T09:28:42.485Z,95.61
2023-01-01T09:30:56.430Z,95.57
2023-01-01T09:33:09.823Z,95.52
2023-01-01T09:35:23.452Z,95.57
2023-01-01T09:37:37.491Z,95.77
2023-01-01T09:39:50.929Z,96.05
2023-01-01T09:42:21.121Z,96.40
2023-01-01T09:44:57.862Z,96.41
2023-01-01T09:47:20.187Z,96.67
2023-01-01T09:49:39.596Z,96.95
2023-01-01T09:51:58.302Z,97.16
2023-01-01T09:54:23.476Z,97.09
2023-01-01T09:56:39.148Z,97.09
2023-01-01T09:58:52.425Z,96.98
2023-01-01T10:01:13.324Z,96.56
2023-01-01T10:03:38.874Z,96.44
2023-01-01T10:06:03.230Z,96.34
2023-01-01T10:08:24.601Z,96.52
2023-01-01T10:10:43.891Z,96.26
2023-01-01T10:13:05.680Z,96.21
2023-01-01T10:15:24.408Z,96.16
2023-01-01T10:17:43.490Z,96.21
2023-01-01T10:20:00.961Z,96.27
2023-01-01T10:22:18.986Z,96.45
2023-01-01T10:24:50.092Z,96.49
2023-01-01T10:27:06.944Z,96.37
2023-01-01T10:29:25.193Z,96.32
2023-01-01T10:31:40.439Z,96.46
2023-01-01T10:33:55.325Z,96.56
2023-01-01T10:36:09.983Z,96.48
2023-01-01T10:38:28.561Z,96.26
2023-01-01T10:40:43.086Z,96.27
2023-01-01T10:42:57.659Z,96.20
2023-01-01T10:45:15.524Z,96.44
2023-01-01T10:47:32.647Z,96.59
2023-01-01T10:50:00.765Z,96.75
2023-01-01T10:52:21.687Z,96.87
2023-01-01T10:54:44.536Z,96.90
2023-01-01T10:56:55.167Z,96.70
2023-01-01T10:59:08.406Z,96.65
2023-01-01T11:01:28.572Z,96.95
2023-01-01T11:03:56.201Z,97.01
2023-01-01T11:06:18.376Z,97.04
2023-01-01T11:08:33.048Z,96.94
2023-01-01T11:10:53.359Z,96.66
2023-01-01T11:13:07.256Z,96.65
2023-01-01T11:15:38.668Z,96.67
2023-01-01T11:17:52.302Z,96.51
2023-01-01T11:20:08.119Z,96.38
2023-01-01T11:22:42.994Z,96.15
2023-01-01T11:25:08.389Z,96.50
2023-01-01T11:27:28.517Z,96.21
2023-01-01T11:29:41.662Z,96.31
2023-01-01T11:31:55.724Z,96.19
2023-01-01T11:34:21.656Z,96.45
2023-01-01T11:36:36.900Z,96.50
2023-01-01T11:38:51.525Z,96.75
2023-01-01T11:41:09.179Z,97.16
2023-01-01T11:43:29.302Z,97.20
2023-01-01T11:45:46.342Z,97.37
2023-01-01T11:48:03.664Z,97.34
2023-01-01T11:50:29.016Z,97.49
2023-01-01T11:52:44.976Z,97.50
2023-01-01T11:55:04.860Z,97.75
2023-01-01T11:57:25.706Z,97.78
2023-01-01T11:59:50.492Z,97.95
2023-01-01T12:02:07.027Z,97.97
2023-01-01T12:04:23.726Z,97.71
2023-01-01T12:06:43.386Z,97.70
2023-01-01T12:09:06.433Z,97.65
2023-01-01T12:11:27.688Z,97.85
2023-01-01T12:13:49.304Z,97.86
2023-01-01T12:16:12.596Z,97.98
2023-01-01T12:18:32.657Z,97.94
2023-01-01T12:20:52.597Z,98.05
2023-01-01T12:23:06.351Z,98.30
2023-01-01T12:25:22.000Z,98.34
2023-01-01T12:27:45.904Z,98.17
2023-01-01T12:30:20.040Z,98.17
2023-01-01T12:32:48.935Z,98.22
2023-01-01T12:35:10.528Z,98.22
2023-01-01T12:37:35.896Z,98.15
2023-01-01T12:40:24.838Z,98.19
2023-01-01T12:42:56.316Z,98.00
2023-01-01T12:45:42.138Z,98.10
2023-01-01T12:48:04.444Z,98.00
2023-01-01T12:50:31.919Z,97.97
2023-01-01T12:52:57.423Z,98.02
2023-01-01T12:55:39.136Z,97.83
2023-01-01T12:57:59.172Z,98.08
2023-01-01T13:00:19.878Z,98.10
2023-01-01T13:02:38.180Z,98.43
2023-01-01T13:04:53.800Z,98.59
2023-01-01T13:07:12.131Z,98.69
2023-01-01T13:09:29.014Z,98.87
2023-01-01T13:11:45.447Z,98.92
2023-01-01T13:13:58.870Z,98.98
2023-01-01T13:16:15.185Z,99.12
2023-01-01T13:18:31.910Z,99.16
2023-01-01T13:20:48.164Z,98.87
2023-01-01T13:23:01.454Z,98.79
2023-01-01T13:25:25.583Z,98.83
2023-01-01T13:28:15.244Z,98.80
2023-01-01T13:30:57.376Z,99.17
2023-01-01T13:33:26.784Z,99.32
2023-01-01T13:35:40.282Z,99.48
2023-01-01T13:37:53.953Z,99.60
2023-01-01T13:40:08.972Z,99.59
2023-01-01T13:42:53.663Z,99.64
2023-01-01T13:45:20.800Z,99.81
2023-01-01T13:48:06.204Z,99.88
2023-01-01T13:50:25.946Z,99.76
2023-01-01T13:53:01.334Z,99.73
2023-01-01T13:55:42.984Z,99.75
2023-01-01T13:58:27.909Z,99.56
2023-01-01T14:00:50.056Z,99.38
2023-01-01T14:03:09.962Z,99.14
2023-01-01T14:05:28.130Z,99.18
2023-01-01T14:07:51.692Z,99.15
2023-01-01T14:10:26.259Z,99.02
2023-01-01T14:12:44.065Z,98.98
2023-01-01T14:14:57.286Z,99.06
2023-01-01T14:17:12.973Z,99.19
2023-01-01T14:19:27.313Z,98.92
2023-01-01T14:21:42.285Z,98.79
2023-01-01T14:23:59.588Z,98.46
2023-01-01T14:26:16.111Z,98.23
2023-01-01T14:28:32.695Z,98.39
2023-01-01T14:30:50.651Z,98.78
2023-01-01T14:33:05.578Z,98.99
2023-01-01T14:35:21.182Z,98.85
2023-01-01T14:37:34.814Z,98.69
2023-01-01T14:39:48.215Z,98.55
2023-01-01T14:42:03.967Z,98.55
2023-01-01T14:44:20.727Z,98.42
2023-01-01T14:46:34.287Z,98.17
2023-01-01T14:48:49.907Z,98.33
2023-01-01T14:51:03.836Z,98.73
2023-01-01T14:53:22.426Z,99.03
2023-01-01T14:55:42.638Z,98.79
2023-01-01T14:58:01.727Z,98.72
2023-01-01T15:00:29.388Z,98.42
2023-01-01T15:02:45.210Z,98.61
2023-01-01T15:04:59.038Z,98.76
2023-01-01T15:07:22.548Z,98.79
2023-01-01T15:09:38.030Z,98.50
2023-01-01T15:11:52.380Z,98.37
2023-01-01T15:14:07.653Z,97.97
2023-01-01T15:16:24.886Z,97.50
2023-01-01T15:18:48.631Z,97.84
2023-01-01T15:21:02.369Z,98.14
2023-01-01T15:23:22.773Z,98.35
2023-01-01T15:25:38.644Z,98.42
2023-01-01T15:27:55.493Z,98.31
2023-01-01T15:30:13.912Z,98.30
2023-01-01T15:32:33.020Z,98.42
2023-01-01T15:34:52.994Z,98.67
2023-01-01T15:37:14.153Z,98.66
2023-01-01T15:39:27.428Z,98.74
2023-01-01T15:41:50.584Z,98.56
2023-01-01T15:44:29.751Z,98.82
2023-01-01T15:46:48.582Z,98.85
2023-01-01T15:49:01.723Z,98.81
2023-01-01T15:51:20.153Z,98.84
2023-01-01T15:53:38.043Z,98.72
2023-01-01T15:55:58.425Z,98.82
2023-01-01T15:58:21.967Z,98.89
2023-01-01T16:00:40.547Z,98.91
2023-01-01T16:02:55.736Z,98.90
2023-01-01T16:05:17.441Z,99.09
2023-01-01T16:07:31.180Z,99.33
2023-01-01T16:09:45.089Z,99.60
2023-01-01T16:12:00.540Z,99.54
2023-01-01T16:14:14.202Z,99.69
2023-01-01T16:16:36.963Z,99.67
2023-01-01T16:18:52.335Z,99.60
2023-01-01T16:21:06.565Z,99.41
2023-01-01T16:23:20.931Z,99.16
2023-01-01T16:25:34.333Z,98.98
2023-01-01T16:27:47.593Z,98.99
2023-01-01T16:30:00.938Z,98.86
2023-01-01T16:32:20.422Z,98.80
2023-01-01T16:34:33.765Z,98.74
2023-01-01T16:36:47.416Z,98.78
2023-01-01T16:39:01.414Z,98.84
2023-01-01T16:41:20.200Z,98.55
2023-01-01T16:43:33.471Z,98.75
2023-01-01T16:45:47.256Z,98.35
2023-01-01T16:48:00.843Z,98.44
2023-01-01T16:50:15.303Z,98.34
2023-01-01T16:52:33.358Z,98.49
2023-01-01T16:54:47.225Z,98.18
2023-01-01T16:57:00.473Z,98.16
2023-01-01T16:59:13.553Z,98.33
2023-01-01T17:01:27.146Z,98.29
2023-01-01T17:03:41.280Z,98.25
2023-01-01T17:05:54.563Z,98.31
2023-01-01T17:08:08.395Z,98.47
2023-01-01T17:10:22.776Z,98.78
2023-01-01T17:12:36.026Z,99.02
2023-01-01T17:14:49.959Z,99.34
2023-01-01T17:17:03.490Z,99.41
2023-01-01T17:19:17.934Z,99.54
2023-01-01T17:21:31.838Z,99.78
2023-01-01T17:23:45.752Z,99.91
2023-01-01T17:26:07.959Z,100.00
2023-01-01T17:28:21.233Z,100.00
2023-01-01T17:30:34.436Z,100.00
2023-01-01T17:32:47.718Z,99.99
2023-01-01T17:35:00.940Z,100.00
2023-01-01T17:37:14.279Z,100.00
2023-01-01T17:39:27.558Z,100.00
2023-01-01T17:41:41.124Z,100.00
2023-01-01T17:43:55.213Z,100.00
2023-01-01T17:46:12.083Z,100.00
2023-01-01T17:48:25.561Z,100.00
2023-01-01T17:50:38.967Z,100.00
2023-01-01T17:52:52.361Z,100.00
2023-01-01T17:55:05.626Z,100.00
2023-01-01T17:57:19.469Z,100.00
2023-01-01T17:59:33.687Z,99.99
2023-01-01T18:01:47.929Z,99.98
2023-01-01T18:04:02.710Z,99.86
2023-01-01T18:06:16.160Z,99.68
2023-01-01T18:08:30.267Z,99.64
2023-01-01T18:10:44.006Z,99.55
2023-01-01T18:12:58.776Z,99.59
2023-01-01T18:24:27.806Z,98.80
2023-01-01T18:26:41.780Z,99.06
2023-01-01T18:29:01.123Z,99.06
2023-01-01T18:31:16.651Z,99.33
2023-01-01T18:33:29.883Z,99.53
2023-01-01T18:35:43.776Z,99.56
2023-01-01T18:37:58.574Z,99.41
2023-01-01T18:40:19.629Z,99.50
2023-01-01T18:42:46.246Z,99.35
2023-01-01T18:45:05.102Z,99.16
2023-01-01T18:47:22.954Z,99.25
2023-01-01T18:49:39.026Z,99.14
2023-01-01T18:51:58.359Z,99.38
2023-01-01T18:54:18.086Z,99.33
2023-01-01T18:56:32.368Z,98.85
2023-01-01T18:58:46.697Z,98.72
2023-01-01T19:01:02.800Z,98.69
2023-01-01T19:03:29.134Z,98.92
2023-01-01T19:05:42.816Z,98.88
2023-01-01T19:08:14.576Z,98.96
2023-01-01T19:10:30.774Z,99.25
2023-01-01T19:12:44.626Z,99.13
2023-01-01T19:15:00.030Z,98.69
2023-01-01T19:17:24.529Z,98.54
2023-01-01T19:19:42.774Z,98.19
2023-01-01T19:22:00.606Z,98.08
2023-01-01T19:24:22.049Z,98.21
2023-01-01T19:26:41.560Z,98.19
2023-01-01T19:31:53.819Z,98.11
2023-01-01T19:34:09.166Z,97.85
2023-01-01T19:36:25.207Z,97.95
2023-01-01T19:38:40.743Z,97.80
2023-01-01T19:40:55.410Z,97.48
2023-01-01T19:43:09.929Z,97.67
2023-01-01T19:45:26.020Z,97.47
2023-01-01T19:47:40.689Z,97.01
2023-01-01T19:49:55.841Z,96.53
2023-01-01T19:52:10.888Z,96.30
2023-01-01T19:54:24.846Z,96.33
2023-01-01T19:56:39.696Z,96.29
2023-01-01T19:58:54.968Z,95.74
2023-01-01T20:01:09.721Z,95.35
2023-01-01T20:05:59.194Z,94.67
2023-01-01T20:08:14.588Z,94.81
2023-01-01T20:10:31.568Z,94.88
2023-01-01T20:12:46.807Z,94.65
2023-01-01T20:15:00.945Z,94.41
2023-01-01T20:17:15.908Z,94.48
2023-01-01T20:19:32.143Z,94.45
2023-01-01T20:22:02.496Z,94.35
2023-01-01T20:24:18.710Z,94.17
2023-01-01T20:26:32.453Z,94.19
2023-01-01T20:29:01.879Z,94.11
2023-01-01T20:31:15.720Z,94.06
2023-01-01T20:33:29.436Z,93.95
2023-01-01T20:35:59.958Z,94.31
2023-01-01T20:38:14.567Z,94.38
2023-01-01T20:40:28.785Z,94.15
2023-01-01T20:42:44.852Z,94.15
2023-01-01T20:44:59.888Z,93.99
2023-01-01T20:47:14.448Z,93.72
2023-01-01T20:49:28.614Z,93.24
2023-01-01T20:51:44.331Z,92.88
2023-01-01T20:53:58.431Z,92.67
2023-01-01T20:56:13.451Z,92.71
2023-01-01T20:58:27.250Z,92.45
2023-01-01T21:00:40.689Z,91.83
2023-01-01T21:02:55.750Z,91.40
2023-01-01T21:07:36.850Z,91.68
2023-01-01T21:09:50.855Z,91.76
2023-01-01T21:12:06.019Z,91.84
2023-01-01T21:14:21.176Z,91.38
2023-01-01T21:16:39.409Z,90.27
2023-01-01T21:18:56.119Z,90.45
2023-01-01T21:21:19.977Z,90.96
2023-01-01T21:23:34.967Z,90.72
2023-01-01T21:25:52.173Z,90.86
2023-01-01T21:28:06.489Z,90.75
2023-01-01T21:30:21.969Z,90.90
2023-01-01T21:32:45.655Z,91.06
2023-01-01T21:35:01.092Z,91.06
2023-01-01T21:37:42.329Z,91.18
2023-01-01T21:39:57.171Z,90.78
2023-01-01T21:42:26.851Z,90.72
2023-01-01T21:44:40.930Z,90.82
2023-01-01T21:47:01.542Z,90.82
2023-01-01T21:49:23.058Z,90.42
2023-01-01T21:51:42.191Z,90.50
2023-01-01T21:53:55.650Z,90.24
2023-01-01T21:56:20.462Z,89.56
2023-01-01T21:58:54.210Z,89.71
2023-01-01T22:01:20.734Z,89.19
2023-01-01T22:03:34.879Z,89.17
2023-01-01T22:05:53.055Z,88.49
2023-01-01T22:08:27.334Z,88.45
2023-01-01T22:10:43.008Z,89.02
2023-01-01T22:13:03.014Z,88.96
2023-01-01T22:15:32.088Z,88.60
2023-01-01T22:17:45.849Z,88.66
2023-01-01T22:20:02.648Z,88.29
2023-01-01T22:22:21.061Z,87.63
2023-01-01T22:24:41.333Z,87.74
2023-01-01T22:26:55.639Z,87.99
2023-01-01T22:29:19.969Z,87.69
2023-01-01T22:31:37.457Z,87.71
2023-01-01T22:33:53.333Z,87.83
2023-01-01T22:36:14.652Z,87.66
2023-01-01T22:38:33.703Z,87.52
2023-01-01T22:40:50.663Z,87.76
2023-01-01T22:43:08.237Z,87.60
2023-01-01T22:45:23.172Z,87.47
2023-01-01T22:47:40.399Z,87.72
2023-01-01T22:49:55.599Z,87.54
2023-01-01T22:52:10.251Z,87.51
2023-01-01T22:54:23.896Z,87.67
2023-01-01T22:56:38.736Z,87.68
2023-01-01T22:58:57.060Z,87.30
2023-01-01T23:01:12.462Z,87.03
2023-01-01T23:03:27.352Z,86.88
2023-01-01T23:05:41.693Z,85.47
2023-01-01T23:07:56.328Z,85.80
2023-01-01T23:10:14.048Z,85.83
2023-01-01T23:12:29.227Z,86.00
2023-01-01T23:15:00.169Z,86.20
2023-01-01T23:17:14.731Z,86.59
2023-01-01T23:19:29.526Z,86.72
2023-01-01T23:21:45.570Z,86.79
2023-01-01T23:24:02.261Z,86.68
2023-01-01T23:26:17.249Z,86.56
2023-01-01T23:28:34.368Z,86.30
2023-01-01T23:30:52.865Z,86.26
2023-01-01T23:33:06.858Z,85.89
2023-01-01T23:35:21.727Z,85.99
2023-01-01T23:37:38.097Z,85.77
2023-01-01T23:39:52.572Z,85.60
2023-01-01T23:42:07.607Z,85.67
2023-01-01T23:44:22.560Z,85.70
2023-01-01T23:46:40.311Z,85.87
2023-01-01T23:48:56.570Z,85.75
2023-01-01T23:51:11.049Z,85.59
2023-01-01T23:53:25.888Z,85.47
2023-01-01T23:55:40.610Z,85.49
2023-01-01T23:57:54.942Z,85.49
